Time;durP1;ratioP1;P1;durP2;ratioP2;P2;SDS_P1;SDS_P2;PMS_P1;PMS_P2;Temp;Humidity;BMP_temperature;BMP_pressure;BME280_temperature;BME280_humidity;BME280_pressure;Samples;Min_cycle;Max_cycle;Signal;HPM_P1;HPM_P2
2023/08/05 00:00:53;;;;;;;0.00;0.00;;;15.90;99.90;;;;;;5093755;28;20024;-75
2023/08/05 00:03:18;;;;;;;0.10;0.10;;;15.80;99.90;;;;;;5093249;28;20189;-74
2023/08/05 00:05:44;;;;;;;0.20;0.20;;;15.90;99.90;;;;;;5093793;28;20027;-75
2023/08/05 00:08:10;;;;;;;0.00;0.00;;;15.80;99.90;;;;;;5093935;28;20111;-75
2023/08/05 00:10:36;;;;;;;0.00;0.00;;;15.70;99.90;;;;;;5093539;28;20027;-74
2023/08/05 00:13:02;;;;;;;0.00;0.00;;;16.10;99.90;;;;;;5093450;28;20040;-75
2023/08/05 00:15:28;;;;;;;0.00;0.00;;;16.30;99.90;;;;;;5093670;28;20433;-75
2023/08/05 00:17:54;;;;;;;0.10;0.10;;;16.40;99.90;;;;;;5093349;28;20107;-75
2023/08/05 00:20:20;;;;;;;0.00;0.00;;;16.40;99.90;;;;;;5093460;28;20378;-75
2023/08/05 00:22:45;;;;;;;0.00;0.00;;;16.30;99.90;;;;;;5079035;28;20366;-75
2023/08/05 00:25:11;;;;;;;0.00;0.00;;;16.50;99.90;;;;;;5093603;28;20149;-75
2023/08/05 00:27:37;;;;;;;0.00;0.00;;;16.40;99.90;;;;;;5093165;28;20050;-74
2023/08/05 00:30:03;;;;;;;0.00;0.00;;;16.30;99.90;;;;;;5092114;28;20384;-75
2023/08/05 00:32:30;;;;;;;0.00;0.00;;;16.30;99.90;;;;;;5093233;28;20032;-75
2023/08/05 00:34:56;;;;;;;0.00;0.00;;;16.40;99.90;;;;;;5091944;28;20476;-75
2023/08/05 00:37:23;;;;;;;0.00;0.00;;;16.40;99.90;;;;;;5091999;28;20472;-75
2023/08/05 00:39:49;;;;;;;0.00;0.00;;;16.50;99.90;;;;;;5093001;28;20063;-75
2023/08/05 00:42:18;;;;;;;0.00;0.00;;;16.50;99.90;;;;;;5093175;28;20042;-74
2023/08/05 00:44:45;;;;;;;0.00;0.00;;;16.40;99.90;;;;;;5091902;28;20028;-75
2023/08/05 00:47:10;;;;;;;0.00;0.00;;;16.40;99.90;;;;;;5091505;28;20020;-74
2023/08/05 00:49:37;;;;;;;1.10;1.00;;;16.20;99.90;;;;;;5091763;28;20476;-74
2023/08/05 00:52:06;;;;;;;0.47;0.43;;;16.10;99.90;;;;;;5092941;28;20028;-74
2023/08/05 00:54:32;;;;;;;0.00;0.00;;;15.90;99.90;;;;;;5091784;28;20031;-75
2023/08/05 00:56:58;;;;;;;0.00;0.00;;;15.70;99.90;;;;;;5093018;28;20107;-75
2023/08/05 00:59:24;;;;;;;0.70;0.47;;;15.70;99.90;;;;;;5091479;28;20032;-74
2023/08/05 01:01:50;;;;;;;0.00;0.00;;;15.80;99.90;;;;;;5092256;28;20085;-74
2023/08/05 01:04:16;;;;;;;0.00;0.00;;;15.90;99.90;;;;;;5091493;28;20032;-75
2023/08/05 01:06:43;;;;;;;0.38;0.38;;;15.90;99.90;;;;;;5092972;28;20116;-74
2023/08/05 01:09:09;;;;;;;0.00;0.00;;;15.90;99.90;;;;;;5089194;28;20028;-75
2023/08/05 01:11:35;;;;;;;0.00;0.00;;;16.10;99.90;;;;;;5091437;28;20012;-75
2023/08/05 01:14:01;;;;;;;0.00;0.00;;;16.10;99.90;;;;;;5092248;28;20480;-75
2023/08/05 01:16:27;;;;;;;0.00;0.00;;;16.10;99.90;;;;;;5083932;28;20029;-75
2023/08/05 01:18:55;;;;;;;0.10;0.10;;;15.80;99.90;;;;;;5084026;28;20021;-75
2023/08/05 01:21:37;;;;;;;0.00;0.00;;;16.00;99.90;;;;;;5067883;28;20039;-74
2023/08/05 01:24:20;;;;;;;0.00;0.00;;;16.10;99.90;;;;;;5099142;28;20495;-75
2023/08/05 01:26:48;;;;;;;0.00;0.00;;;16.00;99.90;;;;;;5090783;28;20048;-74
2023/08/05 01:29:14;;;;;;;0.10;0.10;;;16.00;99.90;;;;;;5094031;28;20016;-75
2023/08/05 01:31:43;;;;;;;0.00;0.00;;;15.90;99.90;;;;;;5098921;28;20088;-73
2023/08/05 01:34:10;;;;;;;0.00;0.00;;;15.80;99.90;;;;;;5082894;28;20028;-74
2023/08/05 01:36:36;;;;;;;0.10;0.10;;;15.80;99.90;;;;;;5086130;28;20082;-75
2023/08/05 01:39:02;;;;;;;0.15;0.15;;;15.80;99.90;;;;;;5075342;28;20025;-75
2023/08/05 01:41:28;;;;;;;0.00;0.00;;;15.80;99.90;;;;;;5077518;28;20077;-73
2023/08/05 01:43:54;;;;;;;0.00;0.00;;;15.80;99.90;;;;;;5078813;28;20025;-74
2023/08/05 01:46:20;;;;;;;0.20;0.20;;;15.80;99.90;;;;;;5092770;28;20035;-75
2023/08/05 01:48:46;;;;;;;1.08;0.52;;;15.80;99.90;;;;;;5099116;28;20072;-75
2023/08/05 01:51:12;;;;;;;0.03;0.03;;;15.90;99.90;;;;;;5097871;28;20123;-75
2023/08/05 01:53:38;;;;;;;0.00;0.00;;;16.00;99.90;;;;;;5097712;28;20107;-75
2023/08/05 01:56:04;;;;;;;0.00;0.00;;;16.10;99.90;;;;;;5098057;28;20494;-75
2023/08/05 01:58:30;;;;;;;0.10;0.10;;;16.00;99.90;;;;;;5097774;28;20012;-75
2023/08/05 02:00:56;;;;;;;0.00;0.00;;;16.10;99.90;;;;;;5097116;28;20120;-75
2023/08/05 02:03:22;;;;;;;0.00;0.00;;;15.90;99.90;;;;;;5098004;28;20362;-75
2023/08/05 02:05:48;;;;;;;0.10;0.10;;;15.90;99.90;;;;;;5097686;28;20115;-74
2023/08/05 02:08:14;;;;;;;0.00;0.00;;;15.80;99.90;;;;;;5099233;28;20020;-75
2023/08/05 02:10:40;;;;;;;0.00;0.00;;;15.70;99.90;;;;;;5098627;28;20399;-74
2023/08/05 02:13:08;;;;;;;0.00;0.00;;;15.70;99.90;;;;;;5097714;28;20077;-74
2023/08/05 02:15:33;;;;;;;0.08;0.08;;;15.70;99.90;;;;;;5097909;28;20506;-74
2023/08/05 02:17:59;;;;;;;0.00;0.00;;;15.50;99.90;;;;;;5090025;28;20176;-74
2023/08/05 02:20:25;;;;;;;0.38;0.38;;;15.60;99.90;;;;;;5093514;28;20075;-75
2023/08/05 02:22:52;;;;;;;0.30;0.30;;;15.40;99.90;;;;;;5098983;28;20024;-75
2023/08/05 02:25:17;;;;;;;0.35;0.35;;;15.00;99.90;;;;;;5098953;28;20458;-75
2023/08/05 02:27:43;;;;;;;0.05;0.05;;;14.80;99.90;;;;;;5093559;28;20016;-75
2023/08/05 02:30:09;;;;;;;0.17;0.17;;;15.00;99.90;;;;;;5095521;28;20077;-75
2023/08/05 02:32:35;;;;;;;0.00;0.00;;;15.10;99.90;;;;;;5095484;28;20028;-74
2023/08/05 02:35:01;;;;;;;0.00;0.00;;;15.30;99.90;;;;;;5095455;28;20465;-75
2023/08/05 02:37:27;;;;;;;0.05;0.05;;;15.20;99.90;;;;;;5095673;28;20035;-75
2023/08/05 02:39:53;;;;;;;0.00;0.00;;;15.40;99.90;;;;;;5094045;28;20028;-75
2023/08/05 02:42:19;;;;;;;0.98;0.40;;;15.40;99.90;;;;;;5093992;28;20028;-75
2023/08/05 02:44:44;;;;;;;0.00;0.00;;;15.60;99.90;;;;;;5095233;28;20065;-75
2023/08/05 02:47:10;;;;;;;0.00;0.00;;;15.60;99.90;;;;;;5095744;28;20092;-74
2023/08/05 02:49:37;;;;;;;0.10;0.10;;;15.60;99.90;;;;;;5095393;28;20498;-75
2023/08/05 02:52:02;;;;;;;0.00;0.00;;;15.70;99.90;;;;;;5095072;28;20021;-75
2023/08/05 02:54:28;;;;;;;0.00;0.00;;;15.80;99.90;;;;;;5093942;28;20036;-74
2023/08/05 02:56:54;;;;;;;0.00;0.00;;;15.70;99.90;;;;;;5093639;28;20074;-74
2023/08/05 02:59:20;;;;;;;2.55;0.73;;;15.80;99.90;;;;;;5093795;28;20119;-75
2023/08/05 03:01:46;;;;;;;0.10;0.10;;;15.60;99.90;;;;;;5094605;28;20423;-74
2023/08/05 03:04:13;;;;;;;0.00;0.00;;;15.50;99.90;;;;;;5093833;28;20127;-75
2023/08/05 03:06:39;;;;;;;0.00;0.00;;;15.50;99.90;;;;;;5094876;28;20524;-75
2023/08/05 03:09:05;;;;;;;0.10;0.10;;;15.60;99.90;;;;;;5095105;28;20032;-75
2023/08/05 03:11:31;;;;;;;0.00;0.00;;;15.70;99.90;;;;;;5093262;28;20099;-74
2023/08/05 03:13:57;;;;;;;0.03;0.03;;;15.70;99.90;;;;;;5093567;28;20108;-75
2023/08/05 03:16:25;;;;;;;0.10;0.10;;;15.50;99.90;;;;;;5093405;28;20526;-75
2023/08/05 03:19:04;;;;;;;1.33;0.70;;;15.50;99.90;;;;;;5079170;28;20106;-75
2023/08/05 03:21:31;;;;;;;0.03;0.03;;;15.50;99.90;;;;;;5093595;28;20464;-75
2023/08/05 03:23:59;;;;;;;0.00;0.00;;;15.50;99.90;;;;;;5093230;28;20568;-75
2023/08/05 03:26:27;;;;;;;0.20;0.20;;;15.50;99.90;;;;;;5093251;28;20027;-75
2023/08/05 03:28:57;;;;;;;0.10;0.10;;;15.50;99.90;;;;;;5093224;28;20024;-75
2023/08/05 03:31:23;;;;;;;0.10;0.10;;;15.40;99.90;;;;;;5092954;28;20438;-75
2023/08/05 03:33:50;;;;;;;2.63;1.65;;;15.30;99.90;;;;;;5093174;28;20012;-74
2023/08/05 03:36:16;;;;;;;1.52;0.95;;;15.10;99.90;;;;;;5094379;28;20131;-75
2023/08/05 03:38:41;;;;;;;0.00;0.00;;;15.20;99.90;;;;;;5092819;28;20020;-74
2023/08/05 03:41:07;;;;;;;0.00;0.00;;;15.10;99.90;;;;;;5092477;28;20471;-75
2023/08/05 03:43:33;;;;;;;0.22;0.22;;;15.10;99.90;;;;;;5093023;28;20468;-75
2023/08/05 03:46:01;;;;;;;0.38;0.38;;;15.00;99.90;;;;;;5092754;28;20028;-74
2023/08/05 03:48:27;;;;;;;1.20;1.10;;;15.00;99.90;;;;;;5076449;28;20024;-74
2023/08/05 03:50:53;;;;;;;0.95;0.95;;;14.80;99.90;;;;;;5092896;28;20413;-74
2023/08/05 03:53:20;;;;;;;2.00;0.75;;;14.80;99.90;;;;;;5092552;28;20024;-74
2023/08/05 03:55:47;;;;;;;1.27;0.80;;;14.80;99.90;;;;;;5092641;28;20418;-75
2023/08/05 03:58:13;;;;;;;0.57;0.57;;;14.80;99.90;;;;;;5092230;28;20086;-75
2023/08/05 04:00:42;;;;;;;0.20;0.20;;;14.90;99.90;;;;;;5093721;28;20036;-74
2023/08/05 04:03:08;;;;;;;0.98;0.65;;;15.10;99.90;;;;;;5093194;28;20097;-74
2023/08/05 04:05:35;;;;;;;1.35;1.25;;;15.20;99.90;;;;;;5092345;28;20036;-75
2023/08/05 04:08:01;;;;;;;2.72;0.88;;;15.00;99.90;;;;;;5093501;28;20410;-74
2023/08/05 04:10:26;;;;;;;1.15;0.60;;;14.90;99.90;;;;;;5093371;28;20102;-74
2023/08/05 04:12:52;;;;;;;0.90;0.57;;;15.00;99.90;;;;;;5093450;28;20168;-74
2023/08/05 04:15:20;;;;;;;0.30;0.30;;;14.90;99.90;;;;;;5093069;28;20051;-75
2023/08/05 04:17:47;;;;;;;0.10;0.10;;;14.90;99.90;;;;;;5084399;28;20103;-73
2023/08/05 04:20:13;;;;;;;2.22;2.03;;;14.90;99.90;;;;;;5084263;28;20113;-74
2023/08/05 04:22:39;;;;;;;0.90;0.85;;;14.70;99.90;;;;;;5092841;28;20464;-74
2023/08/05 04:25:06;;;;;;;4.35;2.42;;;14.70;99.90;;;;;;5091554;28;20028;-73
2023/08/05 04:27:32;;;;;;;0.63;0.45;;;14.80;99.90;;;;;;5091838;28;20411;-74
2023/08/05 04:29:58;;;;;;;0.32;0.32;;;14.90;99.90;;;;;;5093111;28;20027;-74
2023/08/05 04:32:24;;;;;;;0.10;0.10;;;14.90;99.90;;;;;;5092894;28;20021;-74
2023/08/05 04:34:49;;;;;;;0.90;0.90;;;14.80;99.90;;;;;;5093103;28;20028;-74
2023/08/05 04:37:20;;;;;;;1.88;1.75;;;14.90;99.90;;;;;;5091834;28;20027;-74
2023/08/05 04:39:46;;;;;;;0.73;0.55;;;14.90;99.90;;;;;;5078516;28;20086;-75
2023/08/05 04:42:12;;;;;;;1.00;0.85;;;15.00;99.90;;;;;;5092781;28;20028;-76
2023/08/05 04:44:42;;;;;;;0.20;0.20;;;15.00;99.90;;;;;;5091862;28;20092;-75
2023/08/05 04:47:11;;;;;;;0.40;0.40;;;14.90;99.90;;;;;;5092993;28;20021;-75
2023/08/05 04:49:41;;;;;;;0.03;0.03;;;14.80;99.90;;;;;;5092296;28;20028;-75
2023/08/05 04:52:07;;;;;;;0.15;0.15;;;14.90;99.90;;;;;;5093096;28;20483;-75
2023/08/05 04:54:45;;;;;;;0.10;0.10;;;15.00;99.90;;;;;;5092449;28;20016;-74
2023/08/05 04:57:12;;;;;;;2.17;0.50;;;15.20;99.90;;;;;;5093109;28;20545;-75
2023/08/05 04:59:38;;;;;;;0.00;0.00;;;15.40;99.90;;;;;;5092634;28;20027;-75
2023/08/05 05:02:04;;;;;;;0.75;0.75;;;15.50;99.90;;;;;;5083921;28;20384;-74
2023/08/05 05:04:30;;;;;;;0.25;0.25;;;15.60;99.90;;;;;;5092549;28;20036;-75
2023/08/05 05:06:55;;;;;;;0.10;0.10;;;15.40;99.90;;;;;;5091482;28;20450;-75
2023/08/05 05:09:21;;;;;;;1.30;0.68;;;15.30;99.90;;;;;;5091197;28;20024;-75
2023/08/05 05:11:47;;;;;;;0.10;0.10;;;15.20;99.90;;;;;;5092702;28;20439;-75
2023/08/05 05:14:13;;;;;;;0.10;0.10;;;15.20;99.90;;;;;;5092776;28;20034;-75
2023/08/05 05:16:39;;;;;;;1.20;0.95;;;15.10;99.90;;;;;;5092051;28;20060;-75
2023/08/05 05:19:05;;;;;;;0.00;0.00;;;15.20;99.90;;;;;;5078300;28;20043;-75
2023/08/05 05:21:31;;;;;;;0.10;0.10;;;15.30;99.90;;;;;;5092886;28;20020;-75
2023/08/05 05:23:57;;;;;;;0.10;0.10;;;15.40;99.90;;;;;;5090893;28;20035;-76
2023/08/05 05:26:22;;;;;;;0.75;0.75;;;15.30;99.90;;;;;;5092865;28;20481;-75
2023/08/05 05:28:48;;;;;;;0.60;0.57;;;15.40;99.90;;;;;;5092492;28;20496;-75
2023/08/05 05:31:14;;;;;;;0.05;0.05;;;15.30;99.90;;;;;;5092526;28;20028;-75
2023/08/05 05:33:40;;;;;;;0.40;0.40;;;15.40;99.90;;;;;;5091428;28;20032;-75
2023/08/05 05:36:06;;;;;;;0.40;0.40;;;15.50;99.90;;;;;;5092063;28;20065;-75
2023/08/05 05:38:31;;;;;;;5.03;1.02;;;15.50;99.90;;;;;;5092529;28;20039;-75
2023/08/05 05:40:57;;;;;;;0.25;0.25;;;15.80;99.90;;;;;;5092492;28;20032;-75
2023/08/05 05:43:23;;;;;;;0.03;0.03;;;15.60;99.90;;;;;;5092966;28;20039;-75
2023/08/05 05:45:53;;;;;;;3.55;1.88;;;15.70;99.90;;;;;;5092471;28;20121;-75
2023/08/05 05:48:19;;;;;;;0.38;0.38;;;15.70;99.90;;;;;;5092486;28;20055;-74
2023/08/05 05:50:45;;;;;;;0.40;0.35;;;15.60;99.90;;;;;;5092169;28;20025;-75
2023/08/05 05:53:14;;;;;;;0.20;0.20;;;15.70;99.90;;;;;;5092225;28;20494;-75
2023/08/05 05:55:45;;;;;;;0.40;0.40;;;15.70;99.90;;;;;;5092408;28;20020;-75
2023/08/05 05:58:11;;;;;;;0.60;0.52;;;15.70;99.90;;;;;;5091035;28;20059;-75
2023/08/05 06:00:39;;;;;;;0.85;0.63;;;15.80;99.90;;;;;;5092184;28;20032;-75
2023/08/05 06:03:06;;;;;;;2.60;1.15;;;16.00;99.90;;;;;;5095851;28;20032;-73
2023/08/05 06:05:31;;;;;;;0.63;0.43;;;15.90;99.90;;;;;;5095967;28;20037;-73
2023/08/05 06:07:57;;;;;;;8.15;1.02;;;15.90;99.90;;;;;;5096217;28;20035;-75
2023/08/05 06:10:23;;;;;;;1.15;0.30;;;15.90;99.90;;;;;;5096126;28;20085;-75
2023/08/05 06:12:49;;;;;;;0.00;0.00;;;15.90;99.90;;;;;;5095954;28;20114;-75
2023/08/05 06:15:15;;;;;;;0.20;0.20;;;15.90;99.90;;;;;;5095861;28;20020;-75
2023/08/05 06:17:41;;;;;;;3.28;1.83;;;16.00;99.90;;;;;;5089699;28;20366;-75
2023/08/05 06:20:08;;;;;;;0.20;0.20;;;16.00;99.90;;;;;;5087504;28;20036;-75
2023/08/05 06:22:34;;;;;;;1.90;1.20;;;16.10;99.90;;;;;;5095812;28;20027;-75
2023/08/05 06:25:00;;;;;;;2.03;1.65;;;16.20;99.90;;;;;;5095681;28;20488;-75
2023/08/05 06:27:26;;;;;;;2.55;1.52;;;16.20;99.90;;;;;;5095739;28;20052;-75
2023/08/05 06:29:52;;;;;;;1.45;1.05;;;16.20;99.90;;;;;;5095752;28;20499;-75
2023/08/05 06:32:17;;;;;;;1.30;0.47;;;16.20;99.90;;;;;;5095726;28;20410;-75
2023/08/05 06:34:43;;;;;;;0.47;0.47;;;16.20;99.90;;;;;;5095488;28;20120;-75
2023/08/05 06:37:09;;;;;;;2.35;1.67;;;16.10;99.90;;;;;;5095574;28;20027;-74
2023/08/05 06:39:35;;;;;;;1.70;1.60;;;16.20;99.90;;;;;;5095447;28;20077;-75
2023/08/05 06:42:01;;;;;;;9.82;2.17;;;16.40;99.90;;;;;;5095449;28;20058;-75
2023/08/05 06:44:29;;;;;;;3.13;2.03;;;16.30;99.90;;;;;;5094040;28;20166;-75
2023/08/05 06:46:55;;;;;;;4.65;0.73;;;16.30;99.90;;;;;;5095363;28;20107;-75
2023/08/05 06:49:21;;;;;;;2.08;1.45;;;16.20;99.90;;;;;;5093727;28;20027;-74
2023/08/05 06:51:47;;;;;;;2.42;2.20;;;16.30;99.90;;;;;;5077026;28;20020;-75
2023/08/05 06:54:13;;;;;;;8.00;1.13;;;16.10;99.90;;;;;;5095210;28;20039;-75
2023/08/05 06:56:39;;;;;;;2.50;1.65;;;16.20;99.90;;;;;;5095042;28;20055;-74
2023/08/05 06:59:05;;;;;;;1.55;1.35;;;16.40;99.90;;;;;;5095104;28;20032;-75
2023/08/05 07:01:30;;;;;;;6.82;1.52;;;16.50;99.90;;;;;;5094431;28;20376;-75
2023/08/05 07:03:56;;;;;;;2.15;1.63;;;16.40;99.90;;;;;;5094912;28;20036;-74
2023/08/05 07:06:22;;;;;;;1.20;1.10;;;16.60;99.90;;;;;;5095017;28;20028;-75
2023/08/05 07:08:48;;;;;;;2.38;1.83;;;16.50;99.90;;;;;;5095052;28;20025;-77
2023/08/05 07:11:14;;;;;;;4.28;1.77;;;16.60;99.90;;;;;;5094846;28;20059;-73
2023/08/05 07:13:39;;;;;;;0.22;0.22;;;16.50;99.90;;;;;;5092719;28;20020;-74
2023/08/05 07:16:05;;;;;;;0.00;0.00;;;16.70;99.90;;;;;;5094679;28;20502;-74
2023/08/05 07:18:31;;;;;;;0.22;0.20;;;16.80;99.90;;;;;;5081242;28;20037;-74
2023/08/05 07:20:57;;;;;;;0.35;0.35;;;16.90;99.90;;;;;;5093643;28;20109;-74
2023/08/05 07:23:24;;;;;;;0.52;0.30;;;17.10;99.90;;;;;;5094608;28;20024;-74
2023/08/05 07:25:50;;;;;;;1.83;1.65;;;17.20;99.90;;;;;;5094269;28;20081;-74
2023/08/05 07:28:16;;;;;;;5.70;2.90;;;17.20;99.90;;;;;;5094501;28;20024;-75
2023/08/05 07:30:41;;;;;;;2.17;0.98;;;17.10;99.90;;;;;;5094805;28;20115;-75
2023/08/05 07:33:09;;;;;;;3.53;1.88;;;17.10;99.90;;;;;;5093041;28;20541;-75
2023/08/05 07:35:38;;;;;;;4.35;2.47;;;17.20;99.90;;;;;;5087573;28;20035;-74
2023/08/05 07:38:09;;;;;;;7.15;2.85;;;17.10;99.90;;;;;;5085251;28;20036;-75
2023/08/05 07:40:38;;;;;;;7.87;1.07;;;17.20;99.90;;;;;;5079146;28;20374;-74
2023/08/05 07:43:05;;;;;;;0.90;0.82;;;17.30;99.90;;;;;;5073654;28;20032;-74
2023/08/05 07:45:35;;;;;;;4.00;1.30;;;17.30;99.90;;;;;;5078069;28;20042;-75
2023/08/05 07:48:06;;;;;;;4.55;2.78;;;17.40;99.90;;;;;;5074991;28;20165;-75
2023/08/05 07:50:33;;;;;;;0.33;0.23;;;17.30;99.90;;;;;;5087524;28;20032;-75
2023/08/05 07:52:58;;;;;;;3.50;2.25;;;17.30;99.90;;;;;;5075327;28;20352;-75
2023/08/05 07:55:29;;;;;;;4.13;1.88;;;17.50;99.90;;;;;;5077973;28;20056;-75
2023/08/05 07:57:55;;;;;;;0.30;0.30;;;17.50;99.90;;;;;;5077007;28;20090;-75
2023/08/05 08:00:21;;;;;;;4.05;2.22;;;17.80;99.90;;;;;;5079545;28;20115;-75
2023/08/05 08:02:47;;;;;;;1.35;0.55;;;17.80;99.90;;;;;;5083429;28;20108;-74
2023/08/05 08:05:14;;;;;;;5.65;3.15;;;17.80;99.90;;;;;;5078343;28;20146;-75
2023/08/05 08:07:46;;;;;;;2.60;1.90;;;17.70;99.90;;;;;;5078808;28;20044;-75
2023/08/05 08:10:14;;;;;;;3.33;2.58;;;17.90;99.90;;;;;;5075985;28;20024;-75
2023/08/05 08:12:39;;;;;;;2.28;1.80;;;17.80;99.90;;;;;;5087030;28;20018;-74
2023/08/05 08:15:06;;;;;;;6.32;2.53;;;17.60;99.90;;;;;;5079939;28;20412;-74
2023/08/05 08:17:31;;;;;;;2.13;1.75;;;17.30;99.90;;;;;;5075345;28;20028;-75
2023/08/05 08:19:57;;;;;;;0.43;0.43;;;17.60;99.90;;;;;;5082591;28;20127;-75
2023/08/05 08:22:23;;;;;;;1.98;1.50;;;17.50;99.90;;;;;;5077406;28;20048;-74
2023/08/05 08:24:49;;;;;;;8.48;1.65;;;17.30;99.90;;;;;;5072000;28;20028;-75
2023/08/05 08:27:15;;;;;;;0.38;0.38;;;17.40;99.90;;;;;;5075330;28;20021;-75
2023/08/05 08:29:41;;;;;;;0.45;0.45;;;17.40;99.90;;;;;;5075999;28;20028;-75
2023/08/05 08:32:07;;;;;;;0.35;0.35;;;17.50;99.90;;;;;;5074685;28;20020;-75
2023/08/05 08:34:33;;;;;;;0.10;0.10;;;17.80;99.90;;;;;;5074208;28;20036;-74
2023/08/05 08:37:00;;;;;;;3.25;1.40;;;17.60;99.90;;;;;;5083516;28;20025;-75
2023/08/05 08:39:25;;;;;;;0.73;0.73;;;17.90;99.90;;;;;;5072182;28;20040;-75
2023/08/05 08:41:53;;;;;;;5.15;1.95;;;17.90;99.90;;;;;;5080743;28;20031;-75
2023/08/05 08:44:20;;;;;;;20.25;1.67;;;18.10;99.90;;;;;;5078260;28;20012;-76
2023/08/05 08:46:48;;;;;;;1.52;1.20;;;18.20;99.90;;;;;;5071960;28;20103;-76
2023/08/05 08:49:16;;;;;;;0.77;0.50;;;18.30;99.90;;;;;;5070815;28;20017;-76
2023/08/05 08:51:47;;;;;;;1.95;0.73;;;18.40;99.90;;;;;;5081650;28;20020;-76
2023/08/05 08:54:17;;;;;;;0.55;0.32;;;18.40;99.90;;;;;;5075284;28;20024;-75
2023/08/05 08:56:43;;;;;;;1.00;0.73;;;18.60;99.90;;;;;;5072010;28;20036;-75
2023/08/05 08:59:09;;;;;;;1.90;1.23;;;18.60;99.90;;;;;;5081602;28;20074;-75
2023/08/05 09:01:46;;;;;;;0.30;0.25;;;18.60;99.90;;;;;;5078673;28;20360;-75
2023/08/05 09:04:13;;;;;;;0.00;0.00;;;18.90;99.90;;;;;;5072091;28;20135;-75
2023/08/05 09:06:39;;;;;;;0.20;0.20;;;19.10;99.90;;;;;;5081764;28;20063;-73
2023/08/05 09:09:05;;;;;;;1.85;1.23;;;18.90;99.90;;;;;;5073242;28;20064;-75
2023/08/05 09:11:31;;;;;;;0.93;0.60;;;18.60;99.90;;;;;;5073985;28;20086;-75
2023/08/05 09:13:57;;;;;;;4.45;2.53;;;18.60;99.90;;;;;;5072749;28;20021;-73
2023/08/05 09:16:24;;;;;;;0.50;0.50;;;18.40;99.90;;;;;;5083354;28;20394;-72
2023/08/05 09:18:54;;;;;;;0.35;0.28;;;18.30;99.90;;;;;;5077613;28;20028;-71
2023/08/05 09:21:29;;;;;;;0.47;0.47;;;18.20;99.90;;;;;;5079343;28;20037;-75
2023/08/05 09:23:58;;;;;;;0.10;0.10;;;18.40;99.90;;;;;;5068122;28;20028;-73
2023/08/05 09:26:28;;;;;;;0.28;0.10;;;18.30;99.90;;;;;;5075036;28;20383;-72
2023/08/05 09:28:59;;;;;;;0.15;0.15;;;18.50;99.90;;;;;;5080410;28;20031;-75
2023/08/05 09:31:25;;;;;;;0.25;0.25;;;18.40;99.90;;;;;;5077502;28;20058;-72
2023/08/05 09:33:52;;;;;;;1.13;1.02;;;18.20;99.90;;;;;;5071057;28;20059;-75
2023/08/05 09:36:22;;;;;;;1.20;0.57;;;18.00;99.90;;;;;;5071756;28;20025;-75
2023/08/05 09:39:06;;;;;;;0.00;0.00;;;17.90;99.90;;;;;;5076103;28;20032;-75
2023/08/05 09:41:34;;;;;;;2.72;0.98;;;17.80;99.90;;;;;;5075664;28;20504;-75
2023/08/05 09:44:00;;;;;;;0.45;0.40;;;17.80;99.90;;;;;;5074554;28;20086;-74
2023/08/05 09:46:38;;;;;;;3.38;0.50;;;17.70;99.90;;;;;;5075891;28;20028;-73
2023/08/05 09:49:08;;;;;;;9.10;0.40;;;17.70;99.90;;;;;;5074849;28;20038;-72
2023/08/05 09:51:35;;;;;;;2.00;0.65;;;17.80;99.90;;;;;;5085094;28;20063;-75
2023/08/05 09:54:04;;;;;;;0.30;0.30;;;17.90;99.90;;;;;;5078871;28;20017;-75
2023/08/05 09:56:31;;;;;;;2.22;0.98;;;17.80;99.90;;;;;;5074923;28;20025;-74
2023/08/05 09:58:57;;;;;;;1.75;0.47;;;17.90;99.90;;;;;;5074253;28;20058;-74
2023/08/05 10:01:23;;;;;;;5.10;1.70;;;17.80;99.90;;;;;;5085021;28;20040;-73
2023/08/05 10:03:50;;;;;;;1.48;0.95;;;17.90;99.90;;;;;;5076043;28;20028;-73
2023/08/05 10:06:15;;;;;;;1.52;0.90;;;17.90;99.90;;;;;;5077399;28;20080;-73
2023/08/05 10:08:42;;;;;;;2.08;0.68;;;18.00;99.90;;;;;;5076590;28;20096;-75
2023/08/05 10:11:09;;;;;;;6.28;0.85;;;18.20;99.90;;;;;;5085250;28;20117;-74
2023/08/05 10:13:43;;;;;;;0.65;0.43;;;18.30;99.90;;;;;;5079989;28;20028;-71
2023/08/05 10:16:10;;;;;;;0.63;0.60;;;18.30;99.90;;;;;;5075258;28;20115;-74
2023/08/05 10:18:37;;;;;;;0.50;0.50;;;17.90;99.90;;;;;;5083686;28;20024;-74
2023/08/05 10:21:09;;;;;;;0.75;0.68;;;17.80;99.90;;;;;;5086621;28;20107;-74
2023/08/05 10:23:35;;;;;;;1.48;0.80;;;17.60;99.90;;;;;;5074336;28;20028;-74
2023/08/05 10:26:03;;;;;;;0.43;0.28;;;17.60;99.90;;;;;;5086535;28;20048;-74
2023/08/05 10:28:35;;;;;;;0.00;0.00;;;17.60;99.90;;;;;;5081924;28;20116;-74
2023/08/05 10:31:05;;;;;;;0.85;0.85;;;17.80;99.90;;;;;;5077195;28;20037;-74
2023/08/05 10:33:52;;;;;;;3.60;0.95;;;17.80;99.90;;;;;;5074616;28;20028;-74
2023/08/05 10:36:18;;;;;;;1.30;0.95;;;17.70;99.90;;;;;;5092422;28;20024;-74
2023/08/05 10:38:44;;;;;;;0.15;0.15;;;17.80;99.90;;;;;;5079132;28;20021;-74
2023/08/05 10:41:14;;;;;;;4.53;1.05;;;17.50;99.90;;;;;;5075970;28;20082;-75
2023/08/05 10:43:41;;;;;;;5.43;1.67;;;17.50;99.90;;;;;;5075968;28;20024;-75
2023/08/05 10:46:07;;;;;;;0.60;0.60;;;17.40;99.90;;;;;;5076971;28;20028;-74
2023/08/05 10:48:41;;;;;;;4.60;1.48;;;17.40;99.90;;;;;;5078260;28;20032;-74
2023/08/05 10:51:16;;;;;;;1.45;1.30;;;17.40;99.90;;;;;;5082439;28;20130;-74
2023/08/05 10:53:58;;;;;;;3.83;1.27;;;17.40;99.90;;;;;;5075605;28;20032;-74
2023/08/05 10:56:35;;;;;;;0.10;0.10;;;17.40;99.90;;;;;;5075889;28;20024;-74
2023/08/05 10:59:02;;;;;;;0.80;0.50;;;17.50;99.90;;;;;;5076379;28;20038;-75
2023/08/05 11:01:54;;;;;;;0.73;0.73;;;17.40;99.90;;;;;;5077402;28;20469;-74
2023/08/05 11:04:31;;;;;;;1.58;1.00;;;17.40;99.90;;;;;;5078863;28;20043;-75
2023/08/05 11:07:00;;;;;;;0.17;0.17;;;17.20;99.90;;;;;;5077282;28;20052;-74
2023/08/05 11:09:27;;;;;;;0.05;0.05;;;17.30;99.90;;;;;;5074979;28;20032;-74
2023/08/05 11:11:53;;;;;;;8.25;2.97;;;17.40;99.90;;;;;;5086259;28;20028;-74
2023/08/05 11:14:19;;;;;;;0.08;0.08;;;17.40;99.90;;;;;;5074374;28;20028;-74
2023/08/05 11:16:46;;;;;;;6.65;0.95;;;17.60;99.90;;;;;;5078906;28;20020;-74
2023/08/05 11:19:12;;;;;;;0.00;0.00;;;17.40;99.90;;;;;;5080331;28;20031;-74
2023/08/05 11:21:43;;;;;;;1.02;0.63;;;17.30;99.90;;;;;;5078220;28;20604;-74
2023/08/05 11:24:19;;;;;;;0.20;0.20;;;17.30;99.90;;;;;;5073880;28;20488;-75
2023/08/05 11:26:46;;;;;;;0.43;0.38;;;17.30;99.90;;;;;;5085044;28;20030;-74
2023/08/05 11:29:14;;;;;;;0.10;0.10;;;17.30;99.90;;;;;;5083068;28;20024;-74
2023/08/05 11:31:52;;;;;;;2.13;1.17;;;17.50;99.90;;;;;;5081737;28;20032;-75
2023/08/05 11:34:22;;;;;;;0.98;0.75;;;17.50;99.90;;;;;;5080878;28;20530;-75
2023/08/05 11:36:57;;;;;;;1.25;1.00;;;17.70;99.90;;;;;;5081674;28;20104;-74
2023/08/05 11:39:26;;;;;;;6.22;1.45;;;17.40;99.90;;;;;;5079208;28;20047;-74
2023/08/05 11:41:52;;;;;;;1.65;1.08;;;17.00;99.90;;;;;;5084642;28;20472;-74
2023/08/05 11:44:19;;;;;;;6.18;1.75;;;16.90;99.90;;;;;;5080457;28;20024;-74
2023/08/05 11:46:45;;;;;;;2.30;1.35;;;17.10;99.90;;;;;;5073736;28;20016;-74
2023/08/05 11:49:12;;;;;;;1.45;1.05;;;17.00;99.90;;;;;;5082156;28;20051;-74
2023/08/05 11:51:47;;;;;;;7.22;1.90;;;17.20;99.90;;;;;;5085847;28;20063;-74
2023/08/05 11:54:22;;;;;;;1.20;1.08;;;17.20;99.90;;;;;;5076135;28;20388;-75
2023/08/05 11:56:48;;;;;;;1.65;1.23;;;17.20;99.90;;;;;;5081653;28;20020;-73
2023/08/05 11:59:14;;;;;;;4.32;2.63;;;17.50;99.90;;;;;;5072455;28;20040;-74
2023/08/05 12:01:40;;;;;;;5.45;2.13;;;17.30;99.90;;;;;;5080343;28;20027;-73
2023/08/05 12:04:07;;;;;;;2.10;1.33;;;16.80;99.90;;;;;;5077502;28;20093;-74
2023/08/05 12:06:33;;;;;;;1.02;0.98;;;17.10;99.90;;;;;;5079475;28;20476;-74
2023/08/05 12:09:00;;;;;;;3.47;1.23;;;17.10;99.90;;;;;;5066774;28;20120;-74
2023/08/05 12:11:26;;;;;;;9.32;1.65;;;17.30;99.90;;;;;;5085248;28;20091;-75
2023/08/05 12:13:52;;;;;;;0.73;0.73;;;17.30;99.90;;;;;;5078858;28;20517;-73
2023/08/05 12:16:18;;;;;;;0.28;0.28;;;17.40;99.90;;;;;;5081393;28;20035;-74
2023/08/05 12:18:45;;;;;;;1.55;0.82;;;17.40;99.90;;;;;;5085744;28;20376;-75
2023/08/05 12:21:12;;;;;;;2.92;1.77;;;17.60;99.90;;;;;;5079606;28;20519;-75
2023/08/05 12:23:42;;;;;;;10.57;1.15;;;17.60;99.90;;;;;;5072636;28;20112;-74
2023/08/05 12:26:09;;;;;;;4.70;0.77;;;17.30;99.90;;;;;;5078555;28;20127;-73
2023/08/05 12:28:36;;;;;;;1.08;0.75;;;17.30;99.90;;;;;;5072184;28;20380;-75
2023/08/05 12:31:03;;;;;;;2.83;1.60;;;17.30;99.90;;;;;;5079106;28;20028;-75
2023/08/05 12:33:29;;;;;;;1.63;0.70;;;17.30;99.90;;;;;;5076044;28;20040;-75
2023/08/05 12:35:55;;;;;;;1.15;0.30;;;17.70;99.90;;;;;;5074473;28;20025;-75
2023/08/05 12:38:21;;;;;;;0.00;0.00;;;17.60;99.90;;;;;;5076249;28;20029;-75
2023/08/05 12:40:47;;;;;;;6.60;1.10;;;17.50;99.90;;;;;;5072182;28;20082;-75
2023/08/05 12:43:13;;;;;;;0.40;0.40;;;17.50;99.90;;;;;;5076856;28;20028;-74
2023/08/05 12:45:39;;;;;;;2.30;1.00;;;17.40;99.90;;;;;;5083322;28;20476;-75
2023/08/05 12:48:05;;;;;;;1.35;0.82;;;17.40;99.90;;;;;;5078607;28;20035;-74